Detall de PIREP

Printer-friendly versionPDF version

[2010/12/13 21:46:00]
Flight IATA:CT2109
Pilot Number:026
Company ICAO:CAT
Aircraft Type:DC85/A
PAX:136
Departing Airport: LEMG
Destination Airport: LEVC
Alternate Airport:LEPA
Online: VATSIM
Route:VIBAS B28 ASTRO
Flight Level:FL180
No Slew and time accel
No pause
Crash detect
Detect pilot in Cockpit between each 30 and 45 minutes
21:46 Zero fuel Weight: 178886 Lbs, Fuel Weight: 24201 Lbs
21:46 VATSIM:LEMG 132130Z 31001KT 8000 NSC 13/12 Q1016 NOSIG
21:46 VATSIM:LEVC 132130Z VRB01KT 4000 BR FEW012 10/09 Q1015 NOSIG
21:46 VOICE CATALONIAN / LEVC HUB ROUTE CT2109
22:03 Parking Brakes off
22:10 Take-off
22:10 Take off Weight: 202170 Lbs
22:10 Wind: 324º @ 003 Knots Heading: 311º
22:10 POS N36º 40´ 42´´ W004º 30´ 15´´
22:10 Gear Up: 173 Knots
22:10 Flaps:3 at 173 Knots
22:10 Flaps:2 at 187 Knots
22:11 Flaps:1 at 207 Knots
22:13 Flaps:0 at 216 Knots
22:17 TOC
22:17 Fuel Weight: 20459 Lb
22:25 Wind:327º@004 Knots Heading: 043º Ground Speed: 417 Knots Altitude 18074 ft
22:40 Wind:311º@001 Knots Heading: 052º Ground Speed: 412 Knots Altitude 18077 ft
22:42 TOD
22:42 Fuel Weight: 14531 Lb
22:55 Wind:319º@005 Knots Heading: 067º Ground Speed: 247 Knots Altitude 4012 ft
22:56 Flaps:1 at 191 Knots
23:05 Gear Down: 170 Knots
23:05 Flaps:0 at 164 Knots
23:05 Flaps:2 at 165 Knots
23:06 Flaps:3 at 165 Knots
23:07 Flaps:4 at 164 Knots
23:08 Flaps:5 at 142 Knots
23:08 TouchDown:Rate -185 ft/min Speed: 134 Knots
23:08 VATSIM:LEVC 132300Z VRB02KT 5000 BR NSC 10/09 Q1015 NOSIG
23:09 Land
23:09 Wind:286º@002 Knots
23:09 Heading: 296º
23:09 Flight Duration: 00:59
23:09 Landing Weight: 190737 Lbs
23:09 POS N39º 29´ 25´´ W000º 29´ 03´´
23:15 Parking brakes on
23:15 Block to Block Duration: 01:12
23:15 Final Fuel: 11344 Lbls
23:15 Spent Fuel: 12857 Lbls
23:15 Flight Length: 315 NM
23:15 TOD Land Length: 106 NM

Exportar CSV

Powered by Drupal - Modified by Danger4k